Time;durP1;ratioP1;P1;durP2;ratioP2;P2;SDS_P1;SDS_P2;PMS_P1;PMS_P2;Temp;Humidity;BMP_temperature;BMP_pressure;BME280_temperature;BME280_humidity;BME280_pressure;Samples;Min_cycle;Max_cycle;Signal;HPM_P1;HPM_P2
2023/05/30 00:01:01;;;;;;;14.48;3.10;;;11.00;99.90;;;;;;4945283;29;20039;-70
2023/05/30 00:03:26;;;;;;;17.30;2.97;;;11.00;99.90;;;;;;4946544;29;20102;-70
2023/05/30 00:05:52;;;;;;;11.77;3.20;;;11.00;99.90;;;;;;4939733;28;20050;-69
2023/05/30 00:08:18;;;;;;;16.52;3.72;;;11.00;99.90;;;;;;4943395;29;20087;-70
2023/05/30 00:10:44;;;;;;;15.73;3.53;;;11.00;99.90;;;;;;4945773;29;20138;-70
2023/05/30 00:13:09;;;;;;;14.60;3.42;;;11.00;99.90;;;;;;4946317;28;20065;-70
2023/05/30 00:15:35;;;;;;;12.18;3.30;;;11.00;99.90;;;;;;4947663;28;20047;-70
2023/05/30 00:18:01;;;;;;;14.90;4.88;;;11.00;99.90;;;;;;4962241;28;20047;-71
2023/05/30 00:20:29;;;;;;;12.40;4.07;;;11.00;99.90;;;;;;4978763;28;20085;-70
2023/05/30 00:22:58;;;;;;;25.50;5.25;;;11.00;99.90;;;;;;4946079;29;20078;-70
2023/05/30 00:25:24;;;;;;;12.90;3.85;;;11.00;99.90;;;;;;4946170;28;20051;-70
2023/05/30 00:27:51;;;;;;;16.73;3.80;;;11.00;99.90;;;;;;4945723;28;20043;-70
2023/05/30 00:30:17;;;;;;;16.27;3.97;;;10.90;99.90;;;;;;4946382;29;20066;-70
2023/05/30 00:32:46;;;;;;;14.43;3.47;;;10.90;99.90;;;;;;4946670;29;20098;-70
2023/05/30 00:35:11;;;;;;;13.98;3.30;;;10.90;99.90;;;;;;4947548;28;20419;-70
2023/05/30 00:37:37;;;;;;;12.18;3.97;;;10.90;99.90;;;;;;4945834;29;20051;-70
2023/05/30 00:40:04;;;;;;;15.30;3.10;;;10.90;99.90;;;;;;4947703;28;20049;-70
2023/05/30 00:42:29;;;;;;;17.88;3.00;;;10.90;99.90;;;;;;4948970;29;20090;-70
2023/05/30 00:44:55;;;;;;;15.25;3.13;;;10.90;99.90;;;;;;4949554;29;20450;-70
2023/05/30 00:47:21;;;;;;;15.70;3.38;;;10.90;99.90;;;;;;4951415;28;20047;-70
2023/05/30 00:49:47;;;;;;;12.95;3.20;;;11.20;99.90;;;;;;4950117;28;20042;-70
2023/05/30 00:52:15;;;;;;;11.57;3.20;;;10.90;99.90;;;;;;4948425;29;20062;-70
2023/05/30 00:54:43;;;;;;;14.18;3.70;;;10.90;99.90;;;;;;4948568;28;20047;-69
2023/05/30 00:57:10;;;;;;;11.75;3.00;;;10.90;99.90;;;;;;4949186;29;20043;-70
2023/05/30 00:59:36;;;;;;;15.43;3.20;;;10.90;99.90;;;;;;4948982;29;20110;-70
2023/05/30 01:02:03;;;;;;;10.98;3.13;;;10.90;99.90;;;;;;4947994;29;20543;-70
2023/05/30 01:04:29;;;;;;;12.65;3.10;;;10.90;99.90;;;;;;4949590;28;20061;-71
2023/05/30 01:06:55;;;;;;;11.63;3.03;;;10.90;99.90;;;;;;4950092;28;20051;-70
2023/05/30 01:09:21;;;;;;;19.27;3.40;;;10.80;99.90;;;;;;4948260;28;20066;-70
2023/05/30 01:11:56;;;;;;;17.88;3.17;;;10.90;99.90;;;;;;4949082;28;21185;-70
2023/05/30 01:14:30;;;;;;;13.00;3.20;;;10.90;99.90;;;;;;4947988;29;20406;-69
2023/05/30 01:17:14;;;;;;;14.48;2.92;;;10.90;99.90;;;;;;4954442;28;20047;-70
2023/05/30 01:19:58;;;;;;;14.02;2.95;;;10.90;99.90;;;;;;4969423;28;20066;-70
2023/05/30 01:22:28;;;;;;;20.30;3.15;;;10.80;99.90;;;;;;4963338;28;20047;-70
2023/05/30 01:25:29;;;;;;;13.02;3.00;;;10.80;99.90;;;;;;4945522;29;20130;-70
2023/05/30 01:28:15;;;;;;;9.43;2.70;;;10.80;99.90;;;;;;4929175;29;20066;-70
2023/05/30 01:30:45;;;;;;;14.27;2.85;;;10.80;99.90;;;;;;4944527;29;20043;-70
2023/05/30 01:33:16;;;;;;;12.88;3.10;;;10.80;99.90;;;;;;4928265;29;20059;-70
2023/05/30 01:35:46;;;;;;;13.52;3.10;;;10.80;99.90;;;;;;4933970;28;20043;-70
2023/05/30 01:38:13;;;;;;;13.82;3.83;;;10.80;99.90;;;;;;4930546;29;20166;-70
2023/05/30 01:40:46;;;;;;;15.88;3.42;;;10.80;99.90;;;;;;4943016;29;20134;-70
2023/05/30 01:43:43;;;;;;;13.48;3.20;;;10.80;99.90;;;;;;4937257;29;20047;-70
2023/05/30 01:46:13;;;;;;;14.95;3.30;;;10.80;99.90;;;;;;4946232;29;20138;-70
2023/05/30 01:48:58;;;;;;;13.38;3.63;;;10.80;99.90;;;;;;4930932;29;20051;-70
2023/05/30 01:51:34;;;;;;;14.07;3.70;;;10.80;99.90;;;;;;4928704;29;20663;-70
2023/05/30 01:54:04;;;;;;;17.25;3.83;;;10.80;99.90;;;;;;4946253;28;20039;-70
2023/05/30 01:56:31;;;;;;;13.65;3.90;;;10.80;99.90;;;;;;4949595;29;20739;-70
2023/05/30 01:58:59;;;;;;;11.98;3.08;;;10.80;99.90;;;;;;4946135;28;20125;-70
2023/05/30 02:01:28;;;;;;;14.10;3.10;;;10.80;99.90;;;;;;4949735;28;20563;-70
2023/05/30 02:03:54;;;;;;;13.38;3.00;;;10.80;99.90;;;;;;4947615;28;20578;-70
2023/05/30 02:06:20;;;;;;;14.82;3.33;;;10.80;99.90;;;;;;4947284;28;20079;-70
2023/05/30 02:08:46;;;;;;;14.25;4.40;;;10.80;99.90;;;;;;4947081;29;20054;-70
2023/05/30 02:11:12;;;;;;;11.30;2.85;;;10.80;99.90;;;;;;4946655;28;20106;-71
2023/05/30 02:13:37;;;;;;;13.82;3.35;;;10.80;99.90;;;;;;4963132;28;20047;-70
2023/05/30 02:16:03;;;;;;;12.93;2.88;;;10.80;99.90;;;;;;4947584;29;20043;-70
2023/05/30 02:18:29;;;;;;;16.20;3.20;;;10.80;99.90;;;;;;4947367;29;20046;-70
2023/05/30 02:20:55;;;;;;;14.30;3.13;;;10.80;99.90;;;;;;4946169;29;20043;-70
2023/05/30 02:23:21;;;;;;;10.35;3.05;;;10.80;99.90;;;;;;4944515;28;20059;-70
2023/05/30 02:25:47;;;;;;;18.55;3.42;;;10.80;99.90;;;;;;4947914;29;20058;-70
2023/05/30 02:28:12;;;;;;;16.88;3.83;;;10.80;99.90;;;;;;4947948;29;20395;-70
2023/05/30 02:30:38;;;;;;;16.30;3.33;;;10.80;99.90;;;;;;4947059;29;20615;-70
2023/05/30 02:33:04;;;;;;;9.18;3.08;;;10.80;99.90;;;;;;4947395;29;20053;-70
2023/05/30 02:35:30;;;;;;;9.07;2.83;;;10.80;99.90;;;;;;4947106;29;20106;-70
2023/05/30 02:37:55;;;;;;;9.35;2.72;;;10.80;99.90;;;;;;4946953;29;20047;-70
2023/05/30 02:40:21;;;;;;;10.95;3.30;;;10.90;99.90;;;;;;4947065;29;20058;-70
2023/05/30 02:42:47;;;;;;;12.35;3.72;;;11.10;99.90;;;;;;4939466;28;20047;-70
2023/05/30 02:45:15;;;;;;;13.80;3.08;;;10.80;99.90;;;;;;4930158;29;20127;-69
2023/05/30 02:47:41;;;;;;;14.43;3.30;;;10.80;99.90;;;;;;4931404;28;20054;-70
2023/05/30 02:50:07;;;;;;;12.07;3.40;;;10.80;99.90;;;;;;4945935;29;20058;-70
2023/05/30 02:52:33;;;;;;;17.60;3.72;;;10.80;99.90;;;;;;4948477;28;20043;-70
2023/05/30 02:54:59;;;;;;;12.43;3.50;;;10.80;99.90;;;;;;4945631;28;20047;-70
2023/05/30 02:57:25;;;;;;;19.17;3.83;;;10.80;99.90;;;;;;4947283;29;20130;-70
2023/05/30 02:59:51;;;;;;;15.15;3.95;;;10.80;99.90;;;;;;4947837;28;20122;-70
2023/05/30 03:02:16;;;;;;;17.67;3.47;;;10.80;99.90;;;;;;4947810;28;20412;-70
2023/05/30 03:04:46;;;;;;;15.32;3.97;;;10.80;99.90;;;;;;4948807;29;20051;-70
2023/05/30 03:07:18;;;;;;;13.82;3.35;;;10.80;99.90;;;;;;4946931;29;20134;-70
2023/05/30 03:09:45;;;;;;;13.75;3.30;;;10.80;99.90;;;;;;4927622;29;20078;-70
2023/05/30 03:12:10;;;;;;;16.52;3.38;;;10.80;99.90;;;;;;4936446;29;20460;-70
2023/05/30 03:14:36;;;;;;;18.60;3.65;;;10.80;99.90;;;;;;4927946;29;20167;-70
2023/05/30 03:17:03;;;;;;;13.35;3.38;;;10.80;99.90;;;;;;4933392;29;20130;-70
2023/05/30 03:19:29;;;;;;;16.40;3.35;;;10.80;99.90;;;;;;4946463;29;20044;-69
2023/05/30 03:21:55;;;;;;;14.60;3.75;;;10.80;99.90;;;;;;4945593;29;20063;-70
2023/05/30 03:24:21;;;;;;;13.93;3.45;;;10.80;99.90;;;;;;4945496;29;20054;-70
2023/05/30 03:26:47;;;;;;;18.40;3.70;;;10.80;99.90;;;;;;4946744;29;20031;-70
2023/05/30 03:29:13;;;;;;;15.73;3.40;;;10.80;99.90;;;;;;4946628;29;20091;-70
2023/05/30 03:31:38;;;;;;;18.23;3.22;;;10.80;99.90;;;;;;4943637;29;20054;-70
2023/05/30 03:34:04;;;;;;;16.70;3.95;;;10.80;99.90;;;;;;4938525;28;20051;-70
2023/05/30 03:36:30;;;;;;;13.48;3.50;;;10.70;99.90;;;;;;4932496;29;20055;-71
2023/05/30 03:38:56;;;;;;;13.85;3.92;;;10.80;99.90;;;;;;4937765;28;20043;-71
2023/05/30 03:41:22;;;;;;;16.27;3.83;;;10.70;99.90;;;;;;4947090;29;20066;-70
2023/05/30 03:43:48;;;;;;;20.10;4.18;;;10.70;99.90;;;;;;4947448;29;20043;-70
2023/05/30 03:46:16;;;;;;;15.65;3.92;;;10.80;99.90;;;;;;4946744;28;20074;-70
2023/05/30 03:48:42;;;;;;;12.68;3.58;;;10.80;99.90;;;;;;4947002;29;20059;-70
2023/05/30 03:51:08;;;;;;;12.18;3.50;;;10.80;99.90;;;;;;4946618;28;20055;-70
2023/05/30 03:53:34;;;;;;;13.90;3.42;;;10.80;99.90;;;;;;4944684;28;20055;-70
2023/05/30 03:55:59;;;;;;;16.95;3.83;;;10.80;99.90;;;;;;4946467;29;20086;-70
2023/05/30 03:58:25;;;;;;;17.17;4.00;;;10.80;99.90;;;;;;4947607;29;20362;-70
2023/05/30 04:00:51;;;;;;;15.30;4.03;;;10.80;99.90;;;;;;4945571;29;20044;-70
2023/05/30 04:03:19;;;;;;;14.48;3.40;;;10.80;99.90;;;;;;4946636;28;20415;-70
2023/05/30 04:05:49;;;;;;;13.30;3.45;;;11.00;99.90;;;;;;4945669;28;20059;-70
2023/05/30 04:08:15;;;;;;;20.05;5.05;;;10.80;99.90;;;;;;4944445;29;20161;-69
2023/05/30 04:10:41;;;;;;;16.90;4.22;;;10.80;99.90;;;;;;4929285;29;20493;-70
2023/05/30 04:13:07;;;;;;;15.38;3.53;;;10.80;99.90;;;;;;4945753;28;20146;-70
2023/05/30 04:15:33;;;;;;;14.82;4.45;;;10.80;99.90;;;;;;4948314;28;20135;-70
2023/05/30 04:18:01;;;;;;;15.38;3.47;;;10.80;99.90;;;;;;4949590;29;20054;-70
2023/05/30 04:20:27;;;;;;;16.20;4.05;;;10.80;99.90;;;;;;4950274;28;20050;-70
2023/05/30 04:22:52;;;;;;;15.98;4.63;;;10.90;99.90;;;;;;4949520;29;20055;-69
2023/05/30 04:25:19;;;;;;;21.80;4.07;;;10.90;99.90;;;;;;4947272;28;20059;-69
2023/05/30 04:27:47;;;;;;;19.98;3.72;;;10.80;99.90;;;;;;4947515;29;20047;-70
2023/05/30 04:30:16;;;;;;;17.83;4.22;;;10.90;99.90;;;;;;4932457;29;20051;-70
2023/05/30 04:32:42;;;;;;;19.08;4.15;;;10.90;99.90;;;;;;4950459;28;20114;-70
2023/05/30 04:35:08;;;;;;;10.30;3.92;;;10.90;99.90;;;;;;4949527;29;20047;-70
2023/05/30 04:37:38;;;;;;;17.33;3.80;;;10.90;99.90;;;;;;4946852;29;20039;-70
2023/05/30 04:40:09;;;;;;;14.95;3.42;;;10.90;99.90;;;;;;4929423;29;20194;-69
2023/05/30 04:42:34;;;;;;;15.05;3.63;;;10.90;99.90;;;;;;4948507;28;20047;-70
2023/05/30 04:45:02;;;;;;;16.40;3.90;;;10.90;99.90;;;;;;4948543;28;20046;-70
2023/05/30 04:47:28;;;;;;;15.18;4.32;;;10.90;99.90;;;;;;4948216;29;20078;-70
2023/05/30 04:49:54;;;;;;;18.50;3.70;;;11.00;99.90;;;;;;4948064;29;20126;-70
2023/05/30 04:52:21;;;;;;;14.85;3.70;;;11.00;99.90;;;;;;4948892;29;20094;-71
2023/05/30 04:54:47;;;;;;;17.60;4.80;;;11.00;99.90;;;;;;4946995;28;20047;-70
2023/05/30 04:57:12;;;;;;;10.10;3.80;;;11.00;99.90;;;;;;4933746;29;20632;-70
2023/05/30 04:59:41;;;;;;;16.17;3.55;;;11.00;99.90;;;;;;4947545;29;20047;-70
2023/05/30 05:02:09;;;;;;;19.00;4.47;;;11.00;99.90;;;;;;4945326;29;20444;-70
2023/05/30 05:04:34;;;;;;;14.98;3.45;;;11.10;99.90;;;;;;4947446;29;20071;-70
2023/05/30 05:07:00;;;;;;;13.55;3.28;;;11.10;99.90;;;;;;4950101;28;20082;-70
2023/05/30 05:09:26;;;;;;;13.55;4.07;;;11.10;99.90;;;;;;4937159;29;20039;-70
2023/05/30 05:11:53;;;;;;;14.82;3.30;;;11.10;99.90;;;;;;4937365;28;20122;-70
2023/05/30 05:14:19;;;;;;;13.48;3.45;;;11.10;99.90;;;;;;4941608;29;20051;-70
2023/05/30 05:16:44;;;;;;;16.02;4.18;;;11.10;99.90;;;;;;4938879;29;20101;-71
2023/05/30 05:19:10;;;;;;;16.73;3.15;;;11.20;99.90;;;;;;4942327;29;20150;-70
2023/05/30 05:21:36;;;;;;;11.70;3.75;;;11.10;99.90;;;;;;4943445;29;20051;-70
2023/05/30 05:24:03;;;;;;;15.20;3.33;;;11.20;99.90;;;;;;4940635;28;20191;-70
2023/05/30 05:26:29;;;;;;;12.85;3.58;;;11.20;99.90;;;;;;4940191;28;20039;-70
2023/05/30 05:28:55;;;;;;;14.90;3.20;;;11.20;99.90;;;;;;4934336;28;20039;-70
2023/05/30 05:31:21;;;;;;;13.77;3.25;;;11.20;99.90;;;;;;4937282;28;20089;-70
2023/05/30 05:33:47;;;;;;;17.00;3.25;;;11.20;99.90;;;;;;4939489;29;20123;-70
2023/05/30 05:36:13;;;;;;;10.98;3.10;;;11.20;99.90;;;;;;4940213;29;20043;-70
2023/05/30 05:38:39;;;;;;;14.80;3.20;;;11.40;99.90;;;;;;4945876;29;20612;-70
2023/05/30 05:41:05;;;;;;;11.18;2.95;;;11.30;99.90;;;;;;4961798;28;20062;-70
2023/05/30 05:43:30;;;;;;;10.38;3.03;;;11.30;99.90;;;;;;4946240;29;20051;-70
2023/05/30 05:45:56;;;;;;;14.90;3.47;;;11.30;99.90;;;;;;4942799;28;20130;-71
2023/05/30 05:48:22;;;;;;;17.98;2.97;;;11.30;99.90;;;;;;4943966;29;20116;-70
2023/05/30 05:50:48;;;;;;;14.55;3.17;;;11.30;99.90;;;;;;4944561;28;20664;-71
2023/05/30 05:53:13;;;;;;;11.18;3.10;;;11.30;99.90;;;;;;4950623;28;20047;-71
2023/05/30 05:55:39;;;;;;;10.95;2.45;;;11.30;99.90;;;;;;4947449;28;20047;-70
2023/05/30 05:58:05;;;;;;;13.18;2.72;;;11.30;99.90;;;;;;4946122;29;20062;-70
2023/05/30 06:00:32;;;;;;;12.60;2.60;;;11.30;99.90;;;;;;4943613;28;20079;-69
2023/05/30 06:02:58;;;;;;;9.35;2.25;;;11.30;99.90;;;;;;4944952;28;20043;-70
2023/05/30 06:05:24;;;;;;;9.25;2.72;;;11.30;99.90;;;;;;4944090;29;20055;-70
2023/05/30 06:07:50;;;;;;;10.13;2.63;;;11.30;99.90;;;;;;4945505;29;20100;-69
2023/05/30 06:10:16;;;;;;;11.73;2.50;;;11.30;99.90;;;;;;4946278;29;20157;-70
2023/05/30 06:12:42;;;;;;;8.73;2.38;;;11.30;99.90;;;;;;4944737;29;20043;-70
2023/05/30 06:15:08;;;;;;;12.23;3.40;;;11.30;99.90;;;;;;4942870;29;20083;-70
2023/05/30 06:17:34;;;;;;;10.73;2.80;;;11.40;99.90;;;;;;4943326;28;20054;-71
2023/05/30 06:20:01;;;;;;;12.00;3.00;;;11.40;99.90;;;;;;4948103;28;20047;-70
2023/05/30 06:22:27;;;;;;;15.25;3.05;;;11.40;99.90;;;;;;4941759;29;20055;-70
2023/05/30 06:24:52;;;;;;;14.00;2.78;;;11.40;99.90;;;;;;4946936;29;20043;-70
2023/05/30 06:27:18;;;;;;;8.30;3.05;;;11.40;99.90;;;;;;4945870;29;20482;-70
2023/05/30 06:29:44;;;;;;;13.23;2.40;;;11.40;99.90;;;;;;4935471;29;20135;-70
2023/05/30 06:32:10;;;;;;;12.15;2.90;;;11.40;99.90;;;;;;4929646;29;20792;-70
2023/05/30 06:34:36;;;;;;;11.38;2.85;;;11.40;99.90;;;;;;4948519;28;20047;-70
2023/05/30 06:37:01;;;;;;;9.02;2.42;;;11.40;99.90;;;;;;4943409;28;20087;-70
2023/05/30 06:39:27;;;;;;;11.75;2.50;;;11.50;99.90;;;;;;4941292;29;20125;-69
2023/05/30 06:41:53;;;;;;;11.45;2.83;;;11.50;99.90;;;;;;4946138;29;20049;-70
2023/05/30 06:44:18;;;;;;;8.50;2.53;;;11.40;99.90;;;;;;4945805;28;20035;-70
2023/05/30 06:46:44;;;;;;;8.73;2.85;;;11.50;99.90;;;;;;4937154;28;20381;-69
2023/05/30 06:49:10;;;;;;;12.30;2.67;;;11.50;99.90;;;;;;4944744;28;20055;-70
2023/05/30 06:51:36;;;;;;;8.80;2.40;;;11.50;99.90;;;;;;4950169;28;20042;-70
2023/05/30 06:54:02;;;;;;;8.15;2.33;;;11.50;99.90;;;;;;4942791;28;20043;-70
2023/05/30 06:56:28;;;;;;;9.35;2.33;;;11.50;99.90;;;;;;4939838;28;20117;-70
2023/05/30 06:58:57;;;;;;;9.63;2.20;;;11.50;99.90;;;;;;4946153;28;20618;-70
2023/05/30 07:01:23;;;;;;;12.18;2.85;;;11.50;99.90;;;;;;4942342;28;20047;-70
2023/05/30 07:03:48;;;;;;;7.82;2.50;;;11.50;99.90;;;;;;4945961;28;20047;-70
2023/05/30 07:06:14;;;;;;;8.35;2.42;;;11.50;99.90;;;;;;4940729;29;20043;-70
2023/05/30 07:08:40;;;;;;;8.80;2.13;;;11.50;99.90;;;;;;4942726;28;20137;-70
2023/05/30 07:11:09;;;;;;;8.75;2.15;;;11.50;99.90;;;;;;4943179;28;20051;-70
2023/05/30 07:13:34;;;;;;;7.47;2.03;;;11.60;99.90;;;;;;4945372;28;20213;-70
2023/05/30 07:16:00;;;;;;;13.40;2.40;;;11.60;99.90;;;;;;4942373;28;20435;-70
2023/05/30 07:18:26;;;;;;;8.90;2.15;;;11.60;99.90;;;;;;4939781;28;20479;-70
2023/05/30 07:20:51;;;;;;;9.88;2.13;;;11.60;99.90;;;;;;4937586;28;20745;-70
2023/05/30 07:23:17;;;;;;;8.82;2.35;;;11.60;99.90;;;;;;4944498;28;20223;-70
2023/05/30 07:25:43;;;;;;;7.50;2.00;;;11.60;99.90;;;;;;4946656;29;20074;-70
2023/05/30 07:28:10;;;;;;;9.52;1.95;;;11.60;99.90;;;;;;4943869;28;20120;-71
2023/05/30 07:30:36;;;;;;;7.30;2.10;;;11.60;99.90;;;;;;4941102;28;20154;-70
2023/05/30 07:33:02;;;;;;;6.63;1.90;;;11.60;99.90;;;;;;4962232;28;20130;-70
2023/05/30 07:35:28;;;;;;;13.00;2.10;;;11.60;99.90;;;;;;4947069;28;20051;-70
2023/05/30 07:37:53;;;;;;;7.25;2.08;;;11.70;99.90;;;;;;4966434;28;20043;-70
2023/05/30 07:40:19;;;;;;;7.90;2.08;;;11.80;99.90;;;;;;4946042;28;20047;-71
2023/05/30 07:42:47;;;;;;;8.40;2.00;;;11.70;99.90;;;;;;4944096;29;20043;-70
2023/05/30 07:45:14;;;;;;;9.23;2.00;;;11.70;99.90;;;;;;4937151;28;20566;-71
2023/05/30 07:47:40;;;;;;;11.38;2.03;;;11.70;99.90;;;;;;4934037;29;20050;-71
2023/05/30 07:50:07;;;;;;;12.82;2.65;;;11.70;99.90;;;;;;4931208;28;20055;-71
2023/05/30 07:52:33;;;;;;;6.70;2.10;;;11.70;99.90;;;;;;4926767;29;20578;-71
2023/05/30 07:54:59;;;;;;;10.48;2.15;;;11.90;99.90;;;;;;4941890;29;20094;-71
2023/05/30 07:57:25;;;;;;;7.13;1.80;;;11.80;99.90;;;;;;4947310;28;20047;-70
2023/05/30 07:59:51;;;;;;;6.32;2.38;;;11.80;99.90;;;;;;4954228;28;20051;-71
2023/05/30 08:02:18;;;;;;;5.13;1.60;;;11.80;99.90;;;;;;4947102;28;20047;-71
2023/05/30 08:04:43;;;;;;;5.18;1.25;;;11.80;99.90;;;;;;4945676;29;20043;-70
2023/05/30 08:07:09;;;;;;;6.85;1.05;;;11.80;99.90;;;;;;4946849;29;20084;-71
2023/05/30 08:09:36;;;;;;;3.45;1.00;;;11.80;99.90;;;;;;4945723;29;20363;-71
2023/05/30 08:12:04;;;;;;;2.78;0.77;;;11.80;99.90;;;;;;4945035;28;20047;-71
2023/05/30 08:14:31;;;;;;;2.22;0.80;;;11.80;99.90;;;;;;4940250;29;20656;-70
2023/05/30 08:16:57;;;;;;;4.93;0.88;;;11.80;99.90;;;;;;4938961;29;20105;-71
2023/05/30 08:19:23;;;;;;;9.07;1.30;;;12.00;99.90;;;;;;4960702;28;20460;-71
2023/05/30 08:21:49;;;;;;;4.70;1.40;;;11.80;99.90;;;;;;4950879;28;20043;-70
2023/05/30 08:24:17;;;;;;;7.20;1.42;;;11.80;99.90;;;;;;4948656;28;20051;-70
2023/05/30 08:26:44;;;;;;;8.60;1.50;;;11.80;99.90;;;;;;4951197;28;20565;-70
2023/05/30 08:29:11;;;;;;;7.90;1.35;;;11.80;99.90;;;;;;4949059;29;20110;-70
2023/05/30 08:31:37;;;;;;;4.35;1.08;;;11.90;99.90;;;;;;4951503;28;20705;-70
2023/05/30 08:34:03;;;;;;;3.00;0.80;;;11.90;99.90;;;;;;4944235;28;20046;-70
2023/05/30 08:36:29;;;;;;;2.38;0.85;;;12.00;99.90;;;;;;4939432;29;20054;-70
2023/05/30 08:38:55;;;;;;;4.75;0.98;;;11.90;99.90;;;;;;4948084;29;20070;-71
2023/05/30 08:41:22;;;;;;;6.35;1.20;;;12.00;99.90;;;;;;4947353;28;20215;-70
2023/05/30 08:43:49;;;;;;;5.07;0.93;;;12.00;99.90;;;;;;4948745;29;20043;-70
2023/05/30 08:46:18;;;;;;;1.45;0.70;;;12.10;99.90;;;;;;4947400;29;20122;-71
2023/05/30 08:48:45;;;;;;;2.92;0.77;;;12.10;99.90;;;;;;4949674;29;20043;-71
2023/05/30 08:51:13;;;;;;;3.25;0.80;;;12.10;99.90;;;;;;4948533;29;20047;-70
2023/05/30 08:53:49;;;;;;;3.20;0.88;;;12.20;99.90;;;;;;4949075;28;20047;-70
2023/05/30 08:56:22;;;;;;;3.30;0.80;;;12.30;99.90;;;;;;4946581;28;20113;-70
2023/05/30 08:58:53;;;;;;;1.65;0.70;;;12.40;99.90;;;;;;4948846;28;20122;-71
2023/05/30 09:01:19;;;;;;;;;;;12.50;99.90;;;;;;4946029;28;20074;-71
2023/05/30 09:03:47;;;;;;;2.95;0.82;;;12.50;99.90;;;;;;4946396;29;20001;-71
2023/05/30 09:06:13;;;;;;;1.95;0.60;;;12.60;99.90;;;;;;4948611;28;20058;-70
2023/05/30 09:08:45;;;;;;;2.97;0.60;;;12.60;99.90;;;;;;4947182;28;20500;-70
2023/05/30 09:11:11;;;;;;;3.70;0.95;;;12.70;99.90;;;;;;4947523;28;20078;-70
2023/05/30 09:13:37;;;;;;;3.33;0.75;;;12.70;99.90;;;;;;4945090;29;20039;-70
2023/05/30 09:16:03;;;;;;;1.88;0.90;;;12.80;99.90;;;;;;4946453;29;20504;-71
2023/05/30 09:18:30;;;;;;;2.83;0.52;;;12.80;99.90;;;;;;4946273;29;20046;-70
2023/05/30 09:20:57;;;;;;;0.85;0.40;;;12.90;99.90;;;;;;4947431;28;20074;-70
2023/05/30 09:23:23;;;;;;;1.88;0.63;;;12.90;99.90;;;;;;4932544;29;20055;-70
2023/05/30 09:25:49;;;;;;;2.13;0.30;;;12.90;99.90;;;;;;4932162;29;20415;-70
2023/05/30 09:28:24;;;;;;;2.25;0.55;;;12.90;99.90;;;;;;4946086;28;20059;-73
2023/05/30 09:30:59;;;;;;;0.85;0.40;;;12.90;99.90;;;;;;4938148;28;20536;-71
2023/05/30 09:33:41;;;;;;;1.92;0.50;;;12.90;99.90;;;;;;4941216;28;20598;-71
2023/05/30 09:36:07;;;;;;;3.13;0.50;;;13.10;99.90;;;;;;4942441;28;20062;-70
2023/05/30 09:38:33;;;;;;;4.85;0.73;;;13.10;99.90;;;;;;4944158;29;20051;-70
2023/05/30 09:41:03;;;;;;;2.05;0.77;;;13.10;99.90;;;;;;4952292;28;20040;-71
2023/05/30 09:43:31;;;;;;;3.42;1.00;;;13.10;99.90;;;;;;4946358;29;20812;-71
2023/05/30 09:45:59;;;;;;;3.03;0.93;;;13.10;99.90;;;;;;4963021;28;20089;-71
2023/05/30 09:48:25;;;;;;;3.05;0.88;;;13.10;99.90;;;;;;4948156;28;20082;-71
2023/05/30 09:51:01;;;;;;;6.20;1.15;;;13.00;99.90;;;;;;4944493;28;20047;-70
2023/05/30 09:53:29;;;;;;;3.15;0.90;;;13.00;99.90;;;;;;4946944;29;20118;-70
2023/05/30 09:55:55;;;;;;;6.72;1.05;;;12.90;99.90;;;;;;4947976;29;20047;-72
2023/05/30 09:58:22;;;;;;;2.50;0.80;;;13.00;99.90;;;;;;4951385;28;20043;-71
2023/05/30 10:00:52;;;;;;;4.15;0.70;;;13.10;99.90;;;;;;4934603;28;20043;-72
2023/05/30 10:03:41;;;;;;;2.13;0.88;;;13.10;99.90;;;;;;4949116;28;20130;-71
2023/05/30 10:06:16;;;;;;;3.92;1.00;;;13.10;99.90;;;;;;4947902;29;20109;-70
2023/05/30 10:08:45;;;;;;;3.10;0.73;;;13.10;99.90;;;;;;4948570;28;20369;-71
2023/05/30 10:11:12;;;;;;;2.25;0.80;;;13.10;99.90;;;;;;4947371;28;20069;-70
2023/05/30 10:13:39;;;;;;;2.17;0.60;;;13.10;99.90;;;;;;4947309;29;20047;-70
2023/05/30 10:16:11;;;;;;;1.58;0.57;;;13.10;99.90;;;;;;4948145;28;20563;-70
2023/05/30 10:18:41;;;;;;;4.88;1.10;;;13.10;99.90;;;;;;4928947;29;20060;-70
2023/05/30 10:21:09;;;;;;;3.83;1.10;;;13.10;99.90;;;;;;4936156;28;20094;-71
2023/05/30 10:23:36;;;;;;;4.32;1.17;;;13.10;99.90;;;;;;4959619;28;20051;-71
2023/05/30 10:26:04;;;;;;;2.40;1.00;;;13.10;99.90;;;;;;4928712;29;20048;-72
2023/05/30 10:28:32;;;;;;;1.80;0.80;;;13.10;99.90;;;;;;4930863;29;20257;-72
2023/05/30 10:30:59;;;;;;;3.28;1.17;;;13.10;99.90;;;;;;4949524;28;20046;-71
2023/05/30 10:33:28;;;;;;;3.50;0.90;;;13.10;99.90;;;;;;4941054;29;20047;-71
2023/05/30 10:35:54;;;;;;;2.95;1.08;;;13.10;99.90;;;;;;4946283;28;20464;-71
2023/05/30 10:38:21;;;;;;;3.42;1.27;;;13.10;99.90;;;;;;4945870;29;20058;-71
2023/05/30 10:41:02;;;;;;;4.82;1.15;;;13.10;99.90;;;;;;4945256;28;20058;-71
2023/05/30 10:43:43;;;;;;;1.80;1.00;;;13.10;99.90;;;;;;4949730;28;20054;-71
2023/05/30 10:46:45;;;;;;;3.90;1.20;;;13.20;99.90;;;;;;4946123;29;20101;-69
2023/05/30 10:49:18;;;;;;;3.65;1.15;;;13.30;99.90;;;;;;4947013;29;20051;-71
2023/05/30 10:52:00;;;;;;;4.10;1.00;;;13.30;99.90;;;;;;4961355;28;20047;-70
2023/05/30 10:54:28;;;;;;;1.38;0.90;;;13.30;99.90;;;;;;4929016;29;20090;-70
2023/05/30 10:56:54;;;;;;;2.42;0.80;;;13.30;99.90;;;;;;4947195;29;20042;-71
2023/05/30 10:59:21;;;;;;;0.88;0.73;;;13.30;99.90;;;;;;4952223;28;20240;-72
2023/05/30 11:02:02;;;;;;;2.55;0.93;;;13.40;99.90;;;;;;4960620;28;20042;-71
2023/05/30 11:04:37;;;;;;;3.25;1.00;;;13.30;99.90;;;;;;4946142;29;20130;-71
2023/05/30 11:07:05;;;;;;;2.53;0.90;;;13.30;99.90;;;;;;4944449;29;20044;-71
2023/05/30 11:09:31;;;;;;;3.58;0.88;;;13.40;99.90;;;;;;4952952;28;20132;-71
2023/05/30 11:11:59;;;;;;;6.40;1.05;;;13.30;99.90;;;;;;4951851;28;20042;-71
2023/05/30 11:14:32;;;;;;;4.18;1.33;;;13.40;99.90;;;;;;4946597;28;20043;-71
2023/05/30 11:17:07;;;;;;;4.78;1.08;;;13.30;99.90;;;;;;4944277;28;20122;-71
2023/05/30 11:19:49;;;;;;;2.92;1.00;;;13.30;99.90;;;;;;4944734;28;20519;-71
2023/05/30 11:22:16;;;;;;;3.50;1.00;;;13.30;99.90;;;;;;4945787;28;20063;-70
2023/05/30 11:24:43;;;;;;;4.47;1.00;;;13.30;99.90;;;;;;4946696;28;20047;-70
2023/05/30 11:27:12;;;;;;;2.90;1.30;;;13.30;99.90;;;;;;4947175;28;20039;-71
2023/05/30 11:29:43;;;;;;;3.08;1.20;;;13.30;99.90;;;;;;4945756;29;20078;-71
2023/05/30 11:32:10;;;;;;;3.33;0.90;;;13.30;99.90;;;;;;4945621;29;20040;-71
2023/05/30 11:34:37;;;;;;;4.57;1.00;;;13.30;99.90;;;;;;4942132;28;20035;-71
2023/05/30 11:37:03;;;;;;;6.97;1.50;;;13.30;99.90;;;;;;4950895;28;20047;-72
2023/05/30 11:39:33;;;;;;;2.28;1.08;;;13.30;99.90;;;;;;4947371;28;20051;-72
2023/05/30 11:42:02;;;;;;;3.13;1.00;;;13.30;99.90;;;;;;4938594;29;20050;-72
2023/05/30 11:44:30;;;;;;;2.30;1.00;;;13.30;99.90;;;;;;4943143;28;20097;-72
2023/05/30 11:47:11;;;;;;;4.38;1.17;;;13.30;99.90;;;;;;4963228;28;20070;-70
2023/05/30 11:49:37;;;;;;;1.63;0.90;;;13.40;99.90;;;;;;4937857;28;20047;-72
2023/05/30 11:52:03;;;;;;;2.25;1.00;;;13.40;99.90;;;;;;4946122;28;20066;-71
2023/05/30 11:54:29;;;;;;;2.60;0.98;;;13.40;99.90;;;;;;4942773;28;20039;-72
2023/05/30 11:56:56;;;;;;;2.78;1.00;;;13.40;99.90;;;;;;4943491;29;20078;-71
2023/05/30 11:59:24;;;;;;;3.92;1.05;;;13.50;99.90;;;;;;4946585;29;20048;-71
2023/05/30 12:01:57;;;;;;;2.72;1.40;;;13.50;99.90;;;;;;4944018;28;20055;-70
2023/05/30 12:04:30;;;;;;;2.03;1.10;;;13.50;99.90;;;;;;4945550;29;20050;-71
2023/05/30 12:07:05;;;;;;;2.53;1.02;;;13.60;99.90;;;;;;4928410;29;20455;-70
2023/05/30 12:09:42;;;;;;;2.50;1.02;;;13.70;99.90;;;;;;4933696;29;20047;-71
2023/05/30 12:12:08;;;;;;;2.20;1.20;;;13.80;99.90;;;;;;4929129;29;20049;-71
2023/05/30 12:14:38;;;;;;;2.65;1.25;;;13.80;99.90;;;;;;4947740;29;20082;-71
2023/05/30 12:17:09;;;;;;;4.25;1.42;;;13.80;99.90;;;;;;4945866;29;20055;-70
2023/05/30 12:19:34;;;;;;;4.20;1.60;;;13.90;99.90;;;;;;4930487;28;20051;-71
2023/05/30 12:22:04;;;;;;;3.35;1.27;;;14.00;99.90;;;;;;4921305;28;20690;-72
2023/05/30 12:24:34;;;;;;;3.72;1.40;;;14.00;99.90;;;;;;4931866;29;20179;-71
2023/05/30 12:27:01;;;;;;;2.63;1.25;;;14.00;99.90;;;;;;4932800;28;20061;-71
2023/05/30 12:29:30;;;;;;;3.75;1.38;;;14.10;99.90;;;;;;4936519;29;20658;-71
2023/05/30 12:31:56;;;;;;;4.70;1.60;;;14.10;99.90;;;;;;4935347;28;20039;-71
2023/05/30 12:34:22;;;;;;;2.72;0.90;;;14.10;99.90;;;;;;4938329;28;20050;-71
2023/05/30 12:36:48;;;;;;;6.15;0.93;;;14.20;99.90;;;;;;4936158;28;20135;-71
2023/05/30 12:39:15;;;;;;;5.55;1.17;;;14.20;99.90;;;;;;4937726;28;20047;-71
2023/05/30 12:41:41;;;;;;;2.40;0.80;;;14.20;99.90;;;;;;4942252;28;20516;-72
2023/05/30 12:44:19;;;;;;;2.63;1.00;;;14.20;99.90;;;;;;4938212;29;20048;-72
2023/05/30 12:46:45;;;;;;;1.65;0.98;;;14.10;99.90;;;;;;4944228;28;20491;-72